Terminal Aerodrome Forecast
Issued by NWS

Current Version | Previous Version | Text Only | Print | Product List | Glossary Off
Versions: 1 2 3 4 5 6 7 8 9 10 11 12 13 14 15 16 17 18 19 20

000
FTUS41 KPBZ 250959 AAA
TAFMGW
TAF AMD
KMGW 250959Z 2510/2606 18005KT 6SM -RA BKN050
      TEMPO 2510/2512 3SM -RA BKN025
     FM251200 VRB05KT P6SM BKN120
     FM251600 22007KT P6SM SCT050=

USA.gov is the U.S. government's official web portal to all federal, state and local government web resources and services.